Time,TemperatureF,DewpointF,PressureIn,WindDirection,WindDirectionDegrees,WindSpeedMPH,WindSpeedGustMPH,Humidity,HourlyPrecipIn,Conditions,Clouds,dailyrainin,SoftwareType,DateUTC
2013-04-03 00:01:00,48.7,45.3,30.09,North,-999,0.0,0.0,88,0.00,,,-99.99,FreeWX-Wi 1.01,2013-04-03 07:01:00,
2013-04-03 00:06:00,48.7,45.3,30.09,North,-999,0.0,0.0,88,0.00,,,-99.99,FreeWX-Wi 1.01,2013-04-03 07:06:00,
2013-04-03 00:11:00,48.9,45.9,30.09,North,-999,0.0,0.0,89,0.00,,,-99.99,FreeWX-Wi 1.01,2013-04-03 07:11:00,
2013-04-03 00:16:00,48.9,45.9,30.09,North,-999,0.0,0.0,89,0.00,,,-99.99,FreeWX-Wi 1.01,2013-04-03 07:16:00,
2013-04-03 00:21:00,48.9,45.9,30.09,North,-999,0.0,0.0,89,0.00,,,-99.99,FreeWX-Wi 1.01,2013-04-03 07:21:00,
2013-04-03 00:26:00,49.1,46.2,30.09,North,-999,0.0,0.0,90,0.00,,,-99.99,FreeWX-Wi 1.01,2013-04-03 07:26:00,
2013-04-03 00:31:00,49.1,46.2,30.09,North,-999,0.0,0.0,90,0.00,,,-99.99,FreeWX-Wi 1.01,2013-04-03 07:31:00,
2013-04-03 00:36:00,49.1,46.2,30.09,North,-999,0.0,2.2,90,0.00,,,-99.99,FreeWX-Wi 1.01,2013-04-03 07:36:00,
2013-04-03 00:41:00,49.1,46.2,30.09,North,-999,0.0,0.0,90,0.00,,,-99.99,FreeWX-Wi 1.01,2013-04-03 07:41:00,
2013-04-03 00:52:00,49.1,46.2,30.06,North,-999,0.0,0.0,90,0.00,,,-99.99,FreeWX-Wi 1.01,2013-04-03 07:52:00,
2013-04-03 00:57:00,49.1,46.2,30.06,North,-999,0.0,0.0,90,0.00,,,-99.99,FreeWX-Wi 1.01,2013-04-03 07:57:00,
2013-04-03 01:02:00,48.9,46.0,30.06,North,-999,0.0,0.0,90,0.00,,,-99.99,FreeWX-Wi 1.01,2013-04-03 08:02:00,
2013-04-03 01:07:00,48.9,46.0,30.06,North,-999,0.0,0.0,90,0.00,,,-99.99,FreeWX-Wi 1.01,2013-04-03 08:07:00,
2013-04-03 01:17:00,48.9,46.0,-100.00,North,-999,0.0,0.0,90,0.00,,,-99.99,FreeWX-Wi 1.01,2013-04-03 08:17:00,
2013-04-03 01:22:00,48.9,46.0,30.09,North,-999,0.0,0.0,90,0.00,,,-99.99,FreeWX-Wi 1.01,2013-04-03 08:22:00,
2013-04-03 01:27:00,48.9,46.0,30.09,North,-999,0.0,0.0,90,0.00,,,-99.99,FreeWX-Wi 1.01,2013-04-03 08:27:00,
2013-04-03 01:32:00,48.7,45.7,30.09,North,-999,0.0,0.0,89,0.00,,,-99.99,FreeWX-Wi 1.01,2013-04-03 08:32:00,
2013-04-03 01:37:00,48.6,45.5,30.09,North,-999,0.0,0.0,89,0.00,,,-99.99,FreeWX-Wi 1.01,2013-04-03 08:37:00,
2013-04-03 01:42:00,48.4,45.3,30.09,North,-999,0.0,0.0,89,0.00,,,-99.99,FreeWX-Wi 1.01,2013-04-03 08:42:00,
2013-04-03 01:47:00,48.0,45.0,30.09,North,-999,0.0,0.0,89,0.00,,,-99.99,FreeWX-Wi 1.01,2013-04-03 08:47:00,
2013-04-03 01:52:00,47.8,44.8,30.09,North,-999,0.0,0.0,89,0.00,,,-99.99,FreeWX-Wi 1.01,2013-04-03 08:52:00,
2013-04-03 01:57:00,47.5,44.4,30.09,North,-999,0.0,0.0,89,0.00,,,-99.99,FreeWX-Wi 1.01,2013-04-03 08:57:00,
2013-04-03 02:02:00,47.5,44.4,30.09,North,-999,0.0,0.0,89,0.00,,,-99.99,FreeWX-Wi 1.01,2013-04-03 09:02:00,
2013-04-03 02:07:00,47.7,44.6,30.09,North,-999,0.0,0.0,89,0.00,,,-99.99,FreeWX-Wi 1.01,2013-04-03 09:07:00,
2013-04-03 02:12:00,47.8,44.8,30.09,North,-999,0.0,0.0,89,0.00,,,-99.99,FreeWX-Wi 1.01,2013-04-03 09:12:00,
2013-04-03 02:17:00,47.8,44.8,30.09,North,-999,0.0,0.0,89,0.00,,,-99.99,FreeWX-Wi 1.01,2013-04-03 09:17:00,
2013-04-03 02:22:00,48.0,45.1,30.09,North,-999,0.0,0.0,90,0.00,,,-99.99,FreeWX-Wi 1.01,2013-04-03 09:22:00,
2013-04-03 02:27:00,48.0,45.1,30.09,North,-999,0.0,0.0,90,0.00,,,-99.99,FreeWX-Wi 1.01,2013-04-03 09:27:00,
2013-04-03 02:32:00,48.0,45.1,30.09,North,-999,0.0,0.0,90,0.00,,,-99.99,FreeWX-Wi 1.01,2013-04-03 09:32:00,
2013-04-03 02:37:00,48.2,45.1,30.09,North,-999,0.0,0.0,89,0.00,,,-99.99,FreeWX-Wi 1.01,2013-04-03 09:37:00,
2013-04-03 02:42:00,48.0,45.1,30.09,North,-999,0.0,0.0,90,0.00,,,-99.99,FreeWX-Wi 1.01,2013-04-03 09:42:00,
2013-04-03 02:47:00,48.0,45.1,30.09,North,-999,0.0,0.0,90,0.00,,,-99.99,FreeWX-Wi 1.01,2013-04-03 09:47:00,
2013-04-03 02:52:00,47.8,44.8,30.09,North,-999,0.0,0.0,89,0.00,,,-99.99,FreeWX-Wi 1.01,2013-04-03 09:52:00,
2013-04-03 02:57:00,47.7,44.6,30.09,North,-999,0.0,0.0,89,0.00,,,-99.99,FreeWX-Wi 1.01,2013-04-03 09:57:00,
2013-04-03 03:07:00,46.8,43.7,30.09,North,-999,0.0,0.0,89,0.00,,,-99.99,FreeWX-Wi 1.01,2013-04-03 10:07:00,
2013-04-03 03:12:00,46.4,43.3,30.09,North,-999,0.0,0.0,89,0.00,,,-99.99,FreeWX-Wi 1.01,2013-04-03 10:12:00,
2013-04-03 03:17:00,46.2,43.2,30.09,North,-999,0.0,0.0,89,0.00,,,-99.99,FreeWX-Wi 1.01,2013-04-03 10:17:00,
2013-04-03 03:22:00,46.0,43.3,30.09,North,-999,0.0,0.0,90,0.00,,,-99.99,FreeWX-Wi 1.01,2013-04-03 10:22:00,
2013-04-03 03:27:00,45.9,43.2,30.09,North,-999,0.0,0.0,90,0.00,,,-99.99,FreeWX-Wi 1.01,2013-04-03 10:27:00,
2013-04-03 03:32:00,45.5,42.8,30.09,North,-999,0.0,0.0,90,0.00,,,-99.99,FreeWX-Wi 1.01,2013-04-03 10:32:00,
2013-04-03 03:37:00,45.0,42.3,30.09,North,-999,0.0,0.0,90,0.00,,,-99.99,FreeWX-Wi 1.01,2013-04-03 10:37:00,
2013-04-03 03:42:00,44.6,41.9,30.09,North,-999,0.0,0.0,90,0.00,,,-99.99,FreeWX-Wi 1.01,2013-04-03 10:42:00,
2013-04-03 03:47:00,44.2,41.5,30.09,North,-999,0.0,0.0,90,0.00,,,-99.99,FreeWX-Wi 1.01,2013-04-03 10:47:00,
2013-04-03 03:52:00,44.1,41.5,30.09,North,-999,0.0,0.0,91,0.00,,,-99.99,FreeWX-Wi 1.01,2013-04-03 10:52:00,
2013-04-03 03:57:00,44.2,41.7,30.09,North,-999,0.0,0.0,91,0.00,,,-99.99,FreeWX-Wi 1.01,2013-04-03 10:57:00,
2013-04-03 04:02:00,44.2,42.1,30.09,North,-999,0.0,0.0,92,0.00,,,-99.99,FreeWX-Wi 1.01,2013-04-03 11:02:00,
2013-04-03 04:07:00,44.2,42.1,30.06,North,-999,0.0,0.0,92,0.00,,,-99.99,FreeWX-Wi 1.01,2013-04-03 11:07:00,
2013-04-03 04:12:00,44.1,41.9,30.06,North,-999,0.0,0.0,92,0.00,,,-99.99,FreeWX-Wi 1.01,2013-04-03 11:12:00,
2013-04-03 04:17:00,43.9,41.7,30.06,North,-999,0.0,0.0,92,0.00,,,-99.99,FreeWX-Wi 1.01,2013-04-03 11:17:00,
2013-04-03 04:22:00,43.7,41.5,30.06,North,-999,0.0,0.0,92,0.00,,,-99.99,FreeWX-Wi 1.01,2013-04-03 11:22:00,
2013-04-03 04:27:00,43.5,41.7,30.06,North,-999,0.0,0.0,93,0.00,,,-99.99,FreeWX-Wi 1.01,2013-04-03 11:27:00,
2013-04-03 04:32:00,43.3,41.5,30.06,North,-999,0.0,0.0,93,0.00,,,-99.99,FreeWX-Wi 1.01,2013-04-03 11:32:00,
2013-04-03 04:37:00,43.3,41.5,30.09,North,-999,0.0,0.0,93,0.00,,,-99.99,FreeWX-Wi 1.01,2013-04-03 11:37:00,
2013-04-03 04:42:00,43.2,41.5,30.09,North,-999,0.0,0.0,94,0.00,,,-99.99,FreeWX-Wi 1.01,2013-04-03 11:42:00,
2013-04-03 04:47:00,43.0,41.4,30.09,North,-999,0.0,0.0,94,0.00,,,-99.99,FreeWX-Wi 1.01,2013-04-03 11:47:00,
2013-04-03 04:52:00,43.0,41.4,30.06,North,-999,0.0,0.0,94,0.00,,,-99.99,FreeWX-Wi 1.01,2013-04-03 11:52:00,
2013-04-03 04:57:00,43.0,41.7,30.06,North,-999,0.0,0.0,95,0.00,,,-99.99,FreeWX-Wi 1.01,2013-04-03 11:57:00,
2013-04-03 05:02:00,43.0,41.7,30.06,North,-999,0.0,0.0,95,0.00,,,-99.99,FreeWX-Wi 1.01,2013-04-03 12:02:00,
2013-04-03 05:07:00,43.3,42.1,30.06,North,-999,0.0,0.0,95,0.00,,,-99.99,FreeWX-Wi 1.01,2013-04-03 12:07:00,
2013-04-03 05:12:00,43.5,42.4,30.06,North,-999,0.0,0.0,96,0.00,,,-99.99,FreeWX-Wi 1.01,2013-04-03 12:12:00,
2013-04-03 05:17:00,43.7,42.6,30.06,North,-999,0.0,0.0,96,0.00,,,-99.99,FreeWX-Wi 1.01,2013-04-03 12:17:00,
2013-04-03 05:22:00,43.7,42.6,30.06,North,-999,0.0,0.0,96,0.00,,,-99.99,FreeWX-Wi 1.01,2013-04-03 12:22:00,
2013-04-03 05:28:00,43.9,43.2,30.06,North,-999,0.0,0.0,97,0.00,,,-99.99,FreeWX-Wi 1.01,2013-04-03 12:28:00,
2013-04-03 05:33:00,44.1,43.3,30.06,North,-999,0.0,0.0,97,0.00,,,-99.99,FreeWX-Wi 1.01,2013-04-03 12:33:00,
2013-04-03 05:38:00,44.1,43.3,30.06,North,-999,0.0,0.0,97,0.00,,,-99.99,FreeWX-Wi 1.01,2013-04-03 12:38:00,
2013-04-03 05:43:00,44.1,43.3,30.06,North,-999,0.0,0.0,97,0.00,,,-99.99,FreeWX-Wi 1.01,2013-04-03 12:43:00,
2013-04-03 05:48:00,44.2,43.5,30.06,North,-999,0.0,0.0,97,0.00,,,-99.99,FreeWX-Wi 1.01,2013-04-03 12:48:00,
2013-04-03 05:53:00,44.4,43.7,30.09,North,-999,0.0,0.0,97,0.00,,,-99.99,FreeWX-Wi 1.01,2013-04-03 12:53:00,
2013-04-03 05:58:00,44.6,43.9,30.09,North,-999,0.0,0.0,97,0.00,,,-99.99,FreeWX-Wi 1.01,2013-04-03 12:58:00,
2013-04-03 06:03:00,44.4,43.7,30.09,North,-999,0.0,0.0,97,0.00,,,-99.99,FreeWX-Wi 1.01,2013-04-03 13:03:00,
2013-04-03 06:08:00,44.4,43.7,30.06,North,-999,0.0,0.0,97,0.00,,,-99.99,FreeWX-Wi 1.01,2013-04-03 13:08:00,
2013-04-03 06:13:00,44.2,43.5,30.06,North,-999,0.0,0.0,97,0.00,,,-99.99,FreeWX-Wi 1.01,2013-04-03 13:13:00,
2013-04-03 06:18:00,44.2,43.5,30.06,North,-999,0.0,0.0,97,0.00,,,-99.99,FreeWX-Wi 1.01,2013-04-03 13:18:00,
2013-04-03 06:23:00,44.1,43.3,30.06,North,-999,0.0,0.0,97,0.00,,,-99.99,FreeWX-Wi 1.01,2013-04-03 13:23:00,
2013-04-03 06:28:00,43.9,43.2,30.06,North,-999,0.0,0.0,97,0.00,,,-99.99,FreeWX-Wi 1.01,2013-04-03 13:28:00,
2013-04-03 06:33:00,43.7,43.0,30.06,North,-999,0.0,0.0,97,0.00,,,-99.99,FreeWX-Wi 1.01,2013-04-03 13:33:00,
2013-04-03 06:38:00,43.5,42.8,30.06,North,-999,0.0,0.0,97,0.00,,,-99.99,FreeWX-Wi 1.01,2013-04-03 13:38:00,
2013-04-03 06:43:00,43.5,43.0,30.06,North,-999,0.0,0.0,98,0.00,,,-99.99,FreeWX-Wi 1.01,2013-04-03 13:43:00,
2013-04-03 06:48:00,43.7,43.2,30.06,North,-999,0.0,0.0,98,0.00,,,-99.99,FreeWX-Wi 1.01,2013-04-03 13:48:00,
2013-04-03 06:53:00,44.1,43.5,30.06,North,-999,0.0,0.0,98,0.00,,,-99.99,FreeWX-Wi 1.01,2013-04-03 13:53:00,
2013-04-03 06:58:00,44.1,43.5,30.06,North,-999,0.0,0.0,98,0.00,,,-99.99,FreeWX-Wi 1.01,2013-04-03 13:58:00,
2013-04-03 07:03:00,44.1,43.5,30.06,North,-999,0.0,0.0,98,0.00,,,-99.99,FreeWX-Wi 1.01,2013-04-03 14:03:00,
2013-04-03 07:08:00,44.4,43.9,30.06,North,-999,0.0,0.0,98,0.00,,,-99.99,FreeWX-Wi 1.01,2013-04-03 14:08:00,
2013-04-03 07:13:00,44.6,44.1,30.06,North,-999,0.0,0.0,98,0.00,,,-99.99,FreeWX-Wi 1.01,2013-04-03 14:13:00,
2013-04-03 07:18:00,44.8,44.2,30.06,North,-999,0.0,0.0,98,0.00,,,-99.99,FreeWX-Wi 1.01,2013-04-03 14:18:00,
2013-04-03 07:23:00,45.0,44.4,30.06,North,-999,0.0,0.0,98,0.00,,,-99.99,FreeWX-Wi 1.01,2013-04-03 14:23:00,
2013-04-03 07:28:00,45.3,44.8,30.06,North,-999,0.0,0.0,98,0.00,,,-99.99,FreeWX-Wi 1.01,2013-04-03 14:28:00,
2013-04-03 07:33:00,45.5,45.0,30.06,North,-999,0.0,0.0,98,0.00,,,-99.99,FreeWX-Wi 1.01,2013-04-03 14:33:00,
2013-04-03 07:38:00,45.9,45.3,30.06,North,-999,0.0,0.0,98,0.00,,,-99.99,FreeWX-Wi 1.01,2013-04-03 14:38:00,
2013-04-03 07:43:00,46.0,45.5,30.06,North,-999,0.0,0.0,98,0.00,,,-99.99,FreeWX-Wi 1.01,2013-04-03 14:43:00,
2013-04-03 07:48:00,46.6,46.0,30.06,North,-999,0.0,0.0,98,0.00,,,-99.99,FreeWX-Wi 1.01,2013-04-03 14:48:00,
2013-04-03 07:53:00,46.8,46.2,30.06,North,-999,0.0,0.0,98,0.00,,,-99.99,FreeWX-Wi 1.01,2013-04-03 14:53:00,
2013-04-03 07:58:00,47.3,46.8,30.06,North,-999,0.0,0.0,98,0.00,,,-99.99,FreeWX-Wi 1.01,2013-04-03 14:58:00,
2013-04-03 08:03:00,47.7,47.1,30.06,North,-999,0.0,0.0,98,0.00,,,-99.99,FreeWX-Wi 1.01,2013-04-03 15:03:00,
2013-04-03 08:08:00,48.0,47.5,30.06,North,-999,0.0,0.0,98,0.00,,,-99.99,FreeWX-Wi 1.01,2013-04-03 15:08:00,
2013-04-03 08:13:00,48.9,48.4,30.06,North,-999,0.0,0.0,98,0.00,,,-99.99,FreeWX-Wi 1.01,2013-04-03 15:13:00,
2013-04-03 08:18:00,50.0,49.5,30.06,North,-999,0.0,2.7,98,0.00,,,-99.99,FreeWX-Wi 1.01,2013-04-03 15:18:00,
2013-04-03 08:23:00,50.7,50.2,30.06,North,-999,0.0,2.7,98,0.00,,,-99.99,FreeWX-Wi 1.01,2013-04-03 15:23:00,
2013-04-03 08:28:00,51.3,50.7,30.06,North,-999,0.0,4.0,98,0.00,,,-99.99,FreeWX-Wi 1.01,2013-04-03 15:28:00,
2013-04-03 08:33:00,51.1,50.2,30.06,North,-999,0.0,3.6,97,0.00,,,-99.99,FreeWX-Wi 1.01,2013-04-03 15:33:00,
2013-04-03 08:38:00,50.9,48.0,30.06,North,-999,0.0,0.0,90,0.00,,,-99.99,FreeWX-Wi 1.01,2013-04-03 15:38:00,
2013-04-03 08:48:00,50.4,45.1,30.06,North,-999,0.0,3.1,82,0.00,,,-99.99,FreeWX-Wi 1.01,2013-04-03 15:48:00,
2013-04-03 08:53:00,50.0,44.8,30.06,North,-999,0.0,3.1,82,0.00,,,-99.99,FreeWX-Wi 1.01,2013-04-03 15:53:00,
2013-04-03 08:58:00,50.5,45.9,30.06,North,-999,0.0,0.0,84,0.00,,,-99.99,FreeWX-Wi 1.01,2013-04-03 15:58:00,
2013-04-03 09:03:00,51.3,46.6,30.06,North,-999,0.0,0.0,84,0.00,,,-99.99,FreeWX-Wi 1.01,2013-04-03 16:03:00,
2013-04-03 09:08:00,52.2,47.1,30.06,North,-999,0.0,2.2,83,0.00,,,-99.99,FreeWX-Wi 1.01,2013-04-03 16:08:00,
2013-04-03 09:13:00,52.5,46.2,30.06,North,-999,0.0,0.0,79,0.00,,,-99.99,FreeWX-Wi 1.01,2013-04-03 16:13:00,
2013-04-03 09:18:00,52.5,45.1,30.06,North,-999,0.0,0.0,76,0.00,,,-99.99,FreeWX-Wi 1.01,2013-04-03 16:18:00,
2013-04-03 09:23:00,53.2,46.2,30.06,North,-999,0.0,0.0,77,0.00,,,-99.99,FreeWX-Wi 1.01,2013-04-03 16:23:00,
2013-04-03 09:28:00,54.1,46.0,30.06,North,-999,0.0,0.0,74,0.00,,,-99.99,FreeWX-Wi 1.01,2013-04-03 16:28:00,
2013-04-03 09:33:00,54.7,45.5,30.06,North,-999,0.0,4.0,71,0.00,,,-99.99,FreeWX-Wi 1.01,2013-04-03 16:33:00,
2013-04-03 09:38:00,54.7,45.1,30.03,North,-999,0.0,3.6,70,0.00,,,-99.99,FreeWX-Wi 1.01,2013-04-03 16:38:00,
2013-04-03 09:43:00,54.5,45.0,30.03,North,-999,0.0,4.9,70,0.00,,,-99.99,FreeWX-Wi 1.01,2013-04-03 16:43:00,
2013-04-03 09:48:00,55.2,45.7,30.03,North,-999,0.0,0.0,70,0.00,,,-99.99,FreeWX-Wi 1.01,2013-04-03 16:48:00,
2013-04-03 09:53:00,56.8,45.7,30.03,North,-999,0.0,3.6,66,0.00,,,-99.99,FreeWX-Wi 1.01,2013-04-03 16:53:00,
2013-04-03 09:58:00,57.6,45.5,30.03,North,-999,0.0,2.2,64,0.00,,,-99.99,FreeWX-Wi 1.01,2013-04-03 16:58:00,
2013-04-03 10:03:00,58.3,45.7,30.03,North,-999,0.0,3.6,63,0.00,,,-99.99,FreeWX-Wi 1.01,2013-04-03 17:03:00,
2013-04-03 10:08:00,58.1,44.8,30.03,North,-999,0.0,4.5,61,0.00,,,-99.99,FreeWX-Wi 1.01,2013-04-03 17:08:00,
2013-04-03 10:13:00,58.5,45.1,30.03,North,-999,0.0,3.1,61,0.00,,,-99.99,FreeWX-Wi 1.01,2013-04-03 17:13:00,
2013-04-03 10:24:00,58.8,44.6,30.03,North,-999,0.0,3.1,59,0.00,,,-99.99,FreeWX-Wi 1.01,2013-04-03 17:24:00,
2013-04-03 10:34:00,59.2,43.5,30.03,North,-999,0.0,3.6,56,0.00,,,-99.99,FreeWX-Wi 1.01,2013-04-03 17:34:00,
2013-04-03 10:39:00,59.4,43.7,30.03,North,-999,0.0,8.1,56,0.00,,,-99.99,FreeWX-Wi 1.01,2013-04-03 17:39:00,
2013-04-03 10:44:00,59.0,42.4,30.03,NNE,19,1.0,4.9,54,0.00,,,-99.99,FreeWX-Wi 1.01,2013-04-03 17:44:00,
2013-04-03 10:49:00,59.2,42.1,30.03,NNE,25,1.0,4.0,53,0.00,,,-99.99,FreeWX-Wi 1.01,2013-04-03 17:49:00,
2013-04-03 10:54:00,59.4,42.8,30.03,NNE,27,1.0,4.9,54,0.00,,,-99.99,FreeWX-Wi 1.01,2013-04-03 17:54:00,
2013-04-03 10:59:00,60.1,43.3,30.03,NNE,29,1.0,3.6,54,0.00,,,-99.99,FreeWX-Wi 1.01,2013-04-03 17:59:00,
2013-04-03 11:04:00,60.6,43.0,30.03,NE,41,1.0,2.7,52,0.00,,,-99.99,FreeWX-Wi 1.01,2013-04-03 18:04:00,
2013-04-03 11:09:00,61.9,43.5,30.03,NE,51,1.0,3.1,51,0.00,,,-99.99,FreeWX-Wi 1.01,2013-04-03 18:09:00,
2013-04-03 11:14:00,61.7,41.7,30.03,NE,55,1.0,5.4,48,0.00,,,-99.99,FreeWX-Wi 1.01,2013-04-03 18:14:00,
2013-04-03 11:19:00,61.5,41.2,30.03,ENE,70,1.0,3.1,47,0.00,,,-99.99,FreeWX-Wi 1.01,2013-04-03 18:19:00,
2013-04-03 11:24:00,61.2,40.8,30.03,ENE,69,1.0,5.8,47,0.00,,,-99.99,FreeWX-Wi 1.01,2013-04-03 18:24:00,
2013-04-03 11:39:00,61.0,40.6,30.03,NE,54,1.0,2.2,47,0.00,,,-99.99,FreeWX-Wi 1.01,2013-04-03 18:39:00,
2013-04-03 11:49:00,60.8,39.9,30.03,NE,45,1.0,3.6,46,0.00,,,-99.99,FreeWX-Wi 1.01,2013-04-03 18:49:00,
2013-04-03 11:59:00,63.0,41.9,30.03,ENE,58,1.0,3.1,46,0.00,,,-99.99,FreeWX-Wi 1.01,2013-04-03 18:59:00,
2013-04-03 12:04:00,63.0,41.4,30.03,ENE,59,1.0,3.6,45,0.00,,,-99.99,FreeWX-Wi 1.01,2013-04-03 19:04:00,
2013-04-03 12:09:00,63.9,42.6,30.03,ENE,72,1.0,2.7,46,0.00,,,-99.99,FreeWX-Wi 1.01,2013-04-03 19:09:00,
2013-04-03 12:14:00,64.8,42.3,30.03,ENE,72,1.0,3.6,44,0.00,,,-99.99,FreeWX-Wi 1.01,2013-04-03 19:14:00,
2013-04-03 12:25:00,66.4,42.6,30.03,NE,45,1.0,3.1,42,0.00,,,-99.99,FreeWX-Wi 1.01,2013-04-03 19:25:00,
2013-04-03 12:35:00,64.9,40.6,30.03,ENE,57,1.0,4.9,41,0.00,,,-99.99,FreeWX-Wi 1.01,2013-04-03 19:35:00,
2013-04-03 12:40:00,64.6,41.5,30.03,NE,45,1.0,3.6,43,0.00,,,-99.99,FreeWX-Wi 1.01,2013-04-03 19:40:00,
2013-04-03 12:45:00,65.7,42.6,30.03,NNE,23,1.0,4.0,43,0.00,,,-99.99,FreeWX-Wi 1.01,2013-04-03 19:45:00,
2013-04-03 12:50:00,66.4,41.9,30.03,WNW,284,1.0,4.0,41,0.00,,,-99.99,FreeWX-Wi 1.01,2013-04-03 19:50:00,
2013-04-03 12:55:00,66.6,40.8,30.03,WNW,288,1.0,3.1,39,0.00,,,-99.99,FreeWX-Wi 1.01,2013-04-03 19:55:00,
2013-04-03 13:00:00,66.2,39.2,30.03,WSW,257,1.0,5.8,37,0.00,,,-99.99,FreeWX-Wi 1.01,2013-04-03 20:00:00,
2013-04-03 13:05:00,66.0,40.3,30.03,West,267,1.0,3.6,39,0.00,,,-99.99,FreeWX-Wi 1.01,2013-04-03 20:05:00,
2013-04-03 13:10:00,65.3,39.0,30.00,West,274,1.0,4.9,38,0.00,,,-99.99,FreeWX-Wi 1.01,2013-04-03 20:10:00,
2013-04-03 13:15:00,64.4,38.8,30.00,NNW,332,2.0,4.9,39,0.00,,,-99.99,FreeWX-Wi 1.01,2013-04-03 20:15:00,
2013-04-03 13:20:00,64.2,40.1,30.00,ENE,59,2.0,5.4,41,0.00,,,-99.99,FreeWX-Wi 1.01,2013-04-03 20:20:00,
2013-04-03 13:25:00,63.9,39.0,30.00,East,79,2.0,5.8,40,0.00,,,-99.99,FreeWX-Wi 1.01,2013-04-03 20:25:00,
2013-04-03 13:30:00,63.5,39.9,30.00,East,82,2.0,3.6,42,0.00,,,-99.99,FreeWX-Wi 1.01,2013-04-03 20:30:00,
2013-04-03 13:35:00,63.5,39.4,30.00,ENE,75,2.0,3.6,41,0.00,,,-99.99,FreeWX-Wi 1.01,2013-04-03 20:35:00,
2013-04-03 13:40:00,63.1,39.0,30.00,ENE,71,2.0,2.7,41,0.00,,,-99.99,FreeWX-Wi 1.01,2013-04-03 20:40:00,
2013-04-03 13:45:00,64.6,40.3,30.00,ENE,61,2.0,3.6,41,0.00,,,-99.99,FreeWX-Wi 1.01,2013-04-03 20:45:00,
2013-04-03 13:55:00,65.1,38.8,30.00,NE,51,2.0,6.7,38,0.00,,,-99.99,FreeWX-Wi 1.01,2013-04-03 20:55:00,
2013-04-03 14:00:00,65.1,39.6,30.00,NE,41,2.0,3.6,39,0.00,,,-99.99,FreeWX-Wi 1.01,2013-04-03 21:00:00,
2013-04-03 14:05:00,65.8,39.6,30.00,NE,50,1.0,3.1,38,0.00,,,-99.99,FreeWX-Wi 1.01,2013-04-03 21:05:00,
2013-04-03 14:10:00,66.7,39.6,30.00,NE,54,1.0,5.8,37,0.00,,,-99.99,FreeWX-Wi 1.01,2013-04-03 21:10:00,
2013-04-03 14:20:00,67.3,39.4,30.00,NNE,25,1.0,5.4,36,0.00,,,-99.99,FreeWX-Wi 1.01,2013-04-03 21:20:00,
2013-04-03 14:25:00,66.9,39.0,30.00,North,6,2.0,4.0,36,0.00,,,-99.99,FreeWX-Wi 1.01,2013-04-03 21:25:00,
2013-04-03 14:30:00,66.9,39.0,30.00,NNE,15,2.0,4.9,36,0.00,,,-99.99,FreeWX-Wi 1.01,2013-04-03 21:30:00,
2013-04-03 14:35:00,66.7,38.8,30.00,North,355,2.0,3.6,36,0.00,,,-99.99,FreeWX-Wi 1.01,2013-04-03 21:35:00,
2013-04-03 14:40:00,66.9,39.7,30.00,WNW,301,2.0,3.6,37,0.00,,,-99.99,FreeWX-Wi 1.01,2013-04-03 21:40:00,
2013-04-03 14:45:00,67.3,38.7,30.00,NW,306,2.0,4.9,35,0.00,,,-99.99,FreeWX-Wi 1.01,2013-04-03 21:45:00,
2013-04-03 14:50:00,66.9,38.3,30.00,NW,311,1.0,3.6,35,0.00,,,-99.99,FreeWX-Wi 1.01,2013-04-03 21:50:00,
2013-04-03 14:55:00,67.3,38.7,30.00,NW,307,2.0,3.1,35,0.00,,,-99.99,FreeWX-Wi 1.01,2013-04-03 21:55:00,
2013-04-03 15:00:00,67.3,38.7,30.00,NW,311,1.0,3.1,35,0.00,,,-99.99,FreeWX-Wi 1.01,2013-04-03 22:00:00,
2013-04-03 15:05:00,66.6,38.1,30.00,NW,312,1.0,3.1,35,0.00,,,-99.99,FreeWX-Wi 1.01,2013-04-03 22:05:00,
2013-04-03 15:10:00,66.2,38.5,30.00,NW,317,1.0,4.0,36,0.00,,,-99.99,FreeWX-Wi 1.01,2013-04-03 22:10:00,
2013-04-03 15:15:00,65.7,37.9,30.00,NW,308,1.0,3.6,36,0.00,,,-99.99,FreeWX-Wi 1.01,2013-04-03 22:15:00,
2013-04-03 15:20:00,65.1,37.6,29.97,West,276,1.0,4.0,36,0.00,,,-99.99,FreeWX-Wi 1.01,2013-04-03 22:20:00,
2013-04-03 15:25:00,64.9,37.4,29.97,WSW,238,1.0,3.1,36,0.00,,,-99.99,FreeWX-Wi 1.01,2013-04-03 22:25:00,
2013-04-03 15:30:00,64.6,37.8,29.97,SSW,212,1.0,3.6,37,0.00,,,-99.99,FreeWX-Wi 1.01,2013-04-03 22:30:00,
2013-04-03 15:35:00,64.8,37.9,29.97,SW,228,1.0,4.0,37,0.00,,,-99.99,FreeWX-Wi 1.01,2013-04-03 22:35:00,
2013-04-03 15:40:00,64.9,38.1,29.97,SW,224,1.0,4.0,37,0.00,,,-99.99,FreeWX-Wi 1.01,2013-04-03 22:40:00,
2013-04-03 15:45:00,64.8,37.9,29.97,SW,229,1.0,3.6,37,0.00,,,-99.99,FreeWX-Wi 1.01,2013-04-03 22:45:00,
2013-04-03 15:50:00,65.1,38.8,29.97,SW,230,1.0,3.6,38,0.00,,,-99.99,FreeWX-Wi 1.01,2013-04-03 22:50:00,
2013-04-03 15:55:00,65.1,38.8,29.97,WSW,237,1.0,3.1,38,0.00,,,-99.99,FreeWX-Wi 1.01,2013-04-03 22:55:00,
2013-04-03 16:00:00,65.1,38.8,29.97,WSW,246,1.0,3.1,38,0.00,,,-99.99,FreeWX-Wi 1.01,2013-04-03 23:00:00,
2013-04-03 16:05:00,64.9,38.7,29.97,West,261,1.0,2.7,38,0.00,,,-99.99,FreeWX-Wi 1.01,2013-04-03 23:05:00,
2013-04-03 16:10:00,64.8,37.9,29.97,West,265,1.0,2.2,37,0.00,,,-99.99,FreeWX-Wi 1.01,2013-04-03 23:10:00,
2013-04-03 16:15:00,65.1,38.8,29.97,North,-999,0.0,3.6,38,0.00,,,-99.99,FreeWX-Wi 1.01,2013-04-03 23:15:00,
2013-04-03 16:20:00,64.9,38.1,29.97,North,-999,0.0,2.7,37,0.00,,,-99.99,FreeWX-Wi 1.01,2013-04-03 23:20:00,
2013-04-03 16:25:00,64.9,38.1,29.97,North,-999,0.0,2.2,37,0.00,,,-99.99,FreeWX-Wi 1.01,2013-04-03 23:25:00,
2013-04-03 16:30:00,64.6,37.0,29.97,North,-999,0.0,2.7,36,0.00,,,-99.99,FreeWX-Wi 1.01,2013-04-03 23:30:00,
2013-04-03 16:35:00,64.6,37.8,29.97,North,-999,0.0,3.1,37,0.00,,,-99.99,FreeWX-Wi 1.01,2013-04-03 23:35:00,
2013-04-03 16:40:00,64.4,37.6,29.97,North,-999,0.0,3.1,37,0.00,,,-99.99,FreeWX-Wi 1.01,2013-04-03 23:40:00,
2013-04-03 16:45:00,64.4,37.6,29.97,North,-999,0.0,2.7,37,0.00,,,-99.99,FreeWX-Wi 1.01,2013-04-03 23:45:00,
2013-04-03 16:50:00,64.6,37.8,29.97,North,-999,0.0,0.0,37,0.00,,,-99.99,FreeWX-Wi 1.01,2013-04-03 23:50:00,
2013-04-03 16:55:00,64.6,37.8,29.97,North,-999,0.0,2.7,37,0.00,,,-99.99,FreeWX-Wi 1.01,2013-04-03 23:55:00,
2013-04-03 17:00:00,64.4,36.9,29.97,North,-999,0.0,3.1,36,0.00,,,-99.99,FreeWX-Wi 1.01,2013-04-04 00:00:00,
2013-04-03 17:05:00,64.4,37.6,29.97,North,-999,0.0,2.7,37,0.00,,,-99.99,FreeWX-Wi 1.01,2013-04-04 00:05:00,
2013-04-03 17:10:00,64.2,37.4,29.97,North,-999,0.0,3.1,37,0.00,,,-99.99,FreeWX-Wi 1.01,2013-04-04 00:10:00,
2013-04-03 17:15:00,63.7,36.9,29.97,North,-999,0.0,2.7,37,0.00,,,-99.99,FreeWX-Wi 1.01,2013-04-04 00:15:00,
2013-04-03 17:20:00,63.3,36.7,29.97,North,-999,0.0,2.7,37,0.00,,,-99.99,FreeWX-Wi 1.01,2013-04-04 00:20:00,
2013-04-03 17:25:00,63.1,36.5,29.94,North,-999,0.0,2.2,37,0.00,,,-99.99,FreeWX-Wi 1.01,2013-04-04 00:25:00,
2013-04-03 17:30:00,63.1,37.0,29.94,North,-999,0.0,0.0,38,0.00,,,-99.99,FreeWX-Wi 1.01,2013-04-04 00:30:00,
2013-04-03 17:35:00,63.0,37.6,29.94,North,-999,0.0,0.0,39,0.00,,,-99.99,FreeWX-Wi 1.01,2013-04-04 00:35:00,
2013-04-03 17:41:00,62.6,36.7,29.94,North,-999,0.0,3.6,38,0.00,,,-99.99,FreeWX-Wi 1.01,2013-04-04 00:41:00,
2013-04-03 17:46:00,62.4,36.5,29.94,North,-999,0.0,0.0,38,0.00,,,-99.99,FreeWX-Wi 1.01,2013-04-04 00:46:00,
2013-04-03 17:51:00,62.2,37.0,29.94,North,-999,0.0,0.0,39,0.00,,,-99.99,FreeWX-Wi 1.01,2013-04-04 00:51:00,
2013-04-03 17:56:00,62.2,36.3,29.94,North,-999,0.0,0.0,38,0.00,,,-99.99,FreeWX-Wi 1.01,2013-04-04 00:56:00,
2013-04-03 18:01:00,61.9,36.0,29.94,North,-999,0.0,0.0,38,0.00,,,-99.99,FreeWX-Wi 1.01,2013-04-04 01:01:00,
2013-04-03 18:06:00,61.5,35.6,29.94,North,-999,0.0,2.2,38,0.00,,,-99.99,FreeWX-Wi 1.01,2013-04-04 01:06:00,
2013-04-03 18:11:00,61.2,36.0,-100.00,North,-999,0.0,0.0,39,0.00,,,-99.99,FreeWX-Wi 1.01,2013-04-04 01:11:00,
2013-04-03 18:16:00,61.2,37.2,29.94,North,-999,0.0,0.0,41,0.00,,,-99.99,FreeWX-Wi 1.01,2013-04-04 01:16:00,
2013-04-03 18:21:00,61.2,37.2,-100.00,North,-999,0.0,0.0,41,0.00,,,-99.99,FreeWX-Wi 1.01,2013-04-04 01:21:00,
2013-04-03 18:26:00,61.0,37.0,-100.00,North,-999,0.0,0.0,41,0.00,,,-99.99,FreeWX-Wi 1.01,2013-04-04 01:26:00,
2013-04-03 18:31:00,60.8,37.0,-100.00,North,-999,0.0,0.0,41,0.00,,,-99.99,FreeWX-Wi 1.01,2013-04-04 01:31:00,
2013-04-03 18:36:00,60.6,37.4,29.91,North,-999,0.0,0.0,42,0.00,,,-99.99,FreeWX-Wi 1.01,2013-04-04 01:36:00,
2013-04-03 18:41:00,60.3,36.5,29.91,North,-999,0.0,3.1,41,0.00,,,-99.99,FreeWX-Wi 1.01,2013-04-04 01:41:00,
2013-04-03 18:46:00,60.1,36.3,29.91,North,-999,0.0,2.7,41,0.00,,,-99.99,FreeWX-Wi 1.01,2013-04-04 01:46:00,
2013-04-03 18:51:00,59.7,36.5,29.91,North,-999,0.0,0.0,42,0.00,,,-99.99,FreeWX-Wi 1.01,2013-04-04 01:51:00,
2013-04-03 18:56:00,59.5,37.0,29.91,North,-999,0.0,0.0,43,0.00,,,-99.99,FreeWX-Wi 1.01,2013-04-04 01:56:00,
2013-04-03 19:01:00,59.4,37.4,-100.00,North,-999,0.0,0.0,44,0.00,,,-99.99,FreeWX-Wi 1.01,2013-04-04 02:01:00,
2013-04-03 19:11:00,58.6,37.9,29.91,North,-999,0.0,0.0,46,0.00,,,-99.99,FreeWX-Wi 1.01,2013-04-04 02:11:00,
2013-04-03 19:16:00,58.1,37.4,29.91,North,-999,0.0,0.0,46,0.00,,,-99.99,FreeWX-Wi 1.01,2013-04-04 02:16:00,
2013-04-03 19:21:00,57.7,37.6,29.91,North,-999,0.0,0.0,47,0.00,,,-99.99,FreeWX-Wi 1.01,2013-04-04 02:21:00,
2013-04-03 19:26:00,57.4,37.4,29.91,North,-999,0.0,0.0,47,0.00,,,-99.99,FreeWX-Wi 1.01,2013-04-04 02:26:00,
2013-04-03 19:31:00,56.8,37.4,29.91,North,-999,0.0,0.0,48,0.00,,,-99.99,FreeWX-Wi 1.01,2013-04-04 02:31:00,
2013-04-03 19:36:00,56.5,37.6,29.91,North,-999,0.0,0.0,49,0.00,,,-99.99,FreeWX-Wi 1.01,2013-04-04 02:36:00,
2013-04-03 19:41:00,56.1,37.8,29.91,North,-999,0.0,0.0,50,0.00,,,-99.99,FreeWX-Wi 1.01,2013-04-04 02:41:00,
2013-04-03 19:46:00,55.6,37.2,29.91,North,-999,0.0,0.0,50,0.00,,,-99.99,FreeWX-Wi 1.01,2013-04-04 02:46:00,
2013-04-03 19:56:00,54.9,38.1,29.91,North,-999,0.0,0.0,53,0.00,,,-99.99,FreeWX-Wi 1.01,2013-04-04 02:56:00,
2013-04-03 20:01:00,54.7,37.9,29.91,North,-999,0.0,0.0,53,0.00,,,-99.99,FreeWX-Wi 1.01,2013-04-04 03:01:00,
2013-04-03 20:07:00,54.5,38.7,29.91,North,-999,0.0,0.0,55,0.00,,,-99.99,FreeWX-Wi 1.01,2013-04-04 03:07:00,
2013-04-03 20:12:00,54.1,38.3,29.88,North,-999,0.0,0.0,55,0.00,,,-99.99,FreeWX-Wi 1.01,2013-04-04 03:12:00,
2013-04-03 20:17:00,53.8,37.9,29.88,North,-999,0.0,0.0,55,0.00,,,-99.99,FreeWX-Wi 1.01,2013-04-04 03:17:00,
2013-04-03 20:22:00,53.8,38.8,29.88,North,-999,0.0,0.0,57,0.00,,,-99.99,FreeWX-Wi 1.01,2013-04-04 03:22:00,
2013-04-03 20:27:00,53.4,39.0,29.88,North,-999,0.0,0.0,58,0.00,,,-99.99,FreeWX-Wi 1.01,2013-04-04 03:27:00,
2013-04-03 20:32:00,53.6,40.5,29.88,North,-999,0.0,0.0,61,0.00,,,-99.99,FreeWX-Wi 1.01,2013-04-04 03:32:00,
2013-04-03 20:37:00,54.1,41.4,-100.00,North,-999,0.0,2.2,62,0.00,,,-99.99,FreeWX-Wi 1.01,2013-04-04 03:37:00,
2013-04-03 20:42:00,54.5,41.4,29.88,North,-999,0.0,0.0,61,0.00,,,-99.99,FreeWX-Wi 1.01,2013-04-04 03:42:00,
2013-04-03 20:47:00,54.5,41.4,29.88,North,-999,0.0,0.0,61,0.00,,,-99.99,FreeWX-Wi 1.01,2013-04-04 03:47:00,
2013-04-03 20:52:00,54.5,41.4,29.88,North,-999,0.0,0.0,61,0.00,,,-99.99,FreeWX-Wi 1.01,2013-04-04 03:52:00,
2013-04-03 20:57:00,54.5,41.7,29.88,North,-999,0.0,0.0,62,0.00,,,-99.99,FreeWX-Wi 1.01,2013-04-04 03:57:00,
2013-04-03 21:02:00,54.1,41.9,29.88,North,-999,0.0,0.0,63,0.00,,,-99.99,FreeWX-Wi 1.01,2013-04-04 04:02:00,
2013-04-03 21:07:00,54.0,41.7,29.88,North,-999,0.0,0.0,63,0.00,,,-99.99,FreeWX-Wi 1.01,2013-04-04 04:07:00,
2013-04-03 21:12:00,54.0,42.1,29.88,North,-999,0.0,0.0,64,0.00,,,-99.99,FreeWX-Wi 1.01,2013-04-04 04:12:00,
2013-04-03 21:17:00,53.8,41.9,29.88,North,-999,0.0,0.0,64,0.00,,,-99.99,FreeWX-Wi 1.01,2013-04-04 04:17:00,
2013-04-03 21:22:00,53.8,42.3,29.88,North,-999,0.0,0.0,65,0.00,,,-99.99,FreeWX-Wi 1.01,2013-04-04 04:22:00,
2013-04-03 21:27:00,53.6,42.1,29.88,North,-999,0.0,0.0,65,0.00,,,-99.99,FreeWX-Wi 1.01,2013-04-04 04:27:00,
2013-04-03 21:32:00,53.6,42.4,29.88,North,-999,0.0,0.0,66,0.00,,,-99.99,FreeWX-Wi 1.01,2013-04-04 04:32:00,
2013-04-03 21:37:00,53.4,42.3,29.88,North,-999,0.0,0.0,66,0.00,,,-99.99,FreeWX-Wi 1.01,2013-04-04 04:37:00,
2013-04-03 21:42:00,53.2,42.3,29.88,North,-999,0.0,0.0,66,0.00,,,-99.99,FreeWX-Wi 1.01,2013-04-04 04:42:00,
2013-04-03 21:47:00,53.1,42.4,29.88,North,-999,0.0,0.0,67,0.00,,,-99.99,FreeWX-Wi 1.01,2013-04-04 04:47:00,
2013-04-03 21:52:00,53.1,42.4,29.88,North,-999,0.0,0.0,67,0.00,,,-99.99,FreeWX-Wi 1.01,2013-04-04 04:52:00,
2013-04-03 21:57:00,52.9,42.3,29.88,North,-999,0.0,0.0,67,0.00,,,-99.99,FreeWX-Wi 1.01,2013-04-04 04:57:00,
2013-04-03 22:02:00,52.7,42.4,29.88,North,-999,0.0,0.0,68,0.00,,,-99.99,FreeWX-Wi 1.01,2013-04-04 05:02:00,
2013-04-03 22:07:00,52.7,42.8,29.88,North,-999,0.0,0.0,69,0.00,,,-99.99,FreeWX-Wi 1.01,2013-04-04 05:07:00,
2013-04-03 22:12:00,52.5,42.6,29.88,North,-999,0.0,0.0,69,0.00,,,-99.99,FreeWX-Wi 1.01,2013-04-04 05:12:00,
2013-04-03 22:17:00,52.5,42.6,29.88,North,-999,0.0,3.6,69,0.00,,,-99.99,FreeWX-Wi 1.01,2013-04-04 05:17:00,
2013-04-03 22:22:00,52.3,42.8,29.88,North,-999,0.0,0.0,70,0.00,,,-99.99,FreeWX-Wi 1.01,2013-04-04 05:22:00,
2013-04-03 22:27:00,52.3,42.8,29.88,North,-999,0.0,0.0,70,0.00,,,-99.99,FreeWX-Wi 1.01,2013-04-04 05:27:00,
2013-04-03 22:32:00,52.2,42.6,29.88,North,-999,0.0,0.0,70,0.00,,,-99.99,FreeWX-Wi 1.01,2013-04-04 05:32:00,
2013-04-03 22:37:00,52.0,42.4,-100.00,North,-999,0.0,0.0,70,0.00,,,-99.99,FreeWX-Wi 1.01,2013-04-04 05:37:00,
2013-04-03 22:42:00,51.8,42.3,29.85,North,-999,0.0,0.0,70,0.00,,,-99.99,FreeWX-Wi 1.01,2013-04-04 05:42:00,
2013-04-03 22:47:00,51.6,42.1,29.85,North,-999,0.0,0.0,70,0.00,,,-99.99,FreeWX-Wi 1.01,2013-04-04 05:47:00,
2013-04-03 22:52:00,51.6,42.4,29.88,North,-999,0.0,0.0,71,0.00,,,-99.99,FreeWX-Wi 1.01,2013-04-04 05:52:00,
2013-04-03 22:57:00,51.6,42.4,29.88,North,-999,0.0,0.0,71,0.00,,,-99.99,FreeWX-Wi 1.01,2013-04-04 05:57:00,
2013-04-03 23:02:00,51.8,43.0,-100.00,North,-999,0.0,0.0,72,0.00,,,-99.99,FreeWX-Wi 1.01,2013-04-04 06:02:00,
2013-04-03 23:07:00,52.0,43.5,29.85,North,-999,0.0,0.0,73,0.00,,,-99.99,FreeWX-Wi 1.01,2013-04-04 06:07:00,
2013-04-03 23:12:00,52.2,43.7,29.85,North,-999,0.0,0.0,73,0.00,,,-99.99,FreeWX-Wi 1.01,2013-04-04 06:12:00,
2013-04-03 23:17:00,52.2,43.7,29.85,North,-999,0.0,0.0,73,0.00,,,-99.99,FreeWX-Wi 1.01,2013-04-04 06:17:00,
2013-04-03 23:22:00,52.2,43.7,29.85,North,-999,0.0,0.0,73,0.00,,,-99.99,FreeWX-Wi 1.01,2013-04-04 06:22:00,
2013-04-03 23:27:00,52.2,43.7,29.85,North,-999,0.0,0.0,73,0.00,,,-99.99,FreeWX-Wi 1.01,2013-04-04 06:27:00,
2013-04-03 23:33:00,52.0,43.2,29.85,North,-999,0.0,0.0,72,0.00,,,-99.99,FreeWX-Wi 1.01,2013-04-04 06:33:00,
2013-04-03 23:38:00,51.8,43.0,29.85,North,-999,0.0,0.0,72,0.00,,,-99.99,FreeWX-Wi 1.01,2013-04-04 06:38:00,
2013-04-03 23:43:00,51.4,42.8,29.85,North,-999,0.0,0.0,72,0.00,,,-99.99,FreeWX-Wi 1.01,2013-04-04 06:43:00,
2013-04-03 23:48:00,51.3,42.6,29.85,North,-999,0.0,0.0,72,0.00,,,-99.99,FreeWX-Wi 1.01,2013-04-04 06:48:00,
2013-04-03 23:53:00,51.1,42.8,29.85,North,-999,0.0,0.0,73,0.00,,,-99.99,FreeWX-Wi 1.01,2013-04-04 06:53:00,
2013-04-03 23:58:00,50.9,42.6,29.85,North,-999,0.0,0.0,73,0.00,,,-99.99,FreeWX-Wi 1.01,2013-04-04 06:58:00,